sensor_id;sensor_type;location;lat;lon;timestamp;temperature;humidity
3684;DHT22;1858;48.716;9.648;2024-02-21T00:00:43;6.10;1.00
3684;DHT22;1858;48.716;9.648;2024-02-21T00:03:11;6.10;1.00
3684;DHT22;1858;48.716;9.648;2024-02-21T00:05:40;6.10;1.00
3684;DHT22;1858;48.716;9.648;2024-02-21T00:08:08;6.10;1.00
3684;DHT22;1858;48.716;9.648;2024-02-21T00:10:36;6.10;1.00
3684;DHT22;1858;48.716;9.648;2024-02-21T00:13:05;6.10;1.00
3684;DHT22;1858;48.716;9.648;2024-02-21T00:15:33;6.10;3.70
3684;DHT22;1858;48.716;9.648;2024-02-21T00:18:01;6.10;17.00
3684;DHT22;1858;48.716;9.648;2024-02-21T00:20:30;6.00;21.20
3684;DHT22;1858;48.716;9.648;2024-02-21T00:22:58;6.00;33.50
3684;DHT22;1858;48.716;9.648;2024-02-21T00:25:27;6.00;69.30
3684;DHT22;1858;48.716;9.648;2024-02-21T00:27:55;6.10;74.10
3684;DHT22;1858;48.716;9.648;2024-02-21T00:30:23;6.10;71.00
3684;DHT22;1858;48.716;9.648;2024-02-21T00:32:52;6.10;62.10
3684;DHT22;1858;48.716;9.648;2024-02-21T00:35:20;6.20;67.50
3684;DHT22;1858;48.716;9.648;2024-02-21T00:37:48;6.20;35.50
3684;DHT22;1858;48.716;9.648;2024-02-21T00:40:17;6.20;20.10
3684;DHT22;1858;48.716;9.648;2024-02-21T00:42:47;6.10;27.40
3684;DHT22;1858;48.716;9.648;2024-02-21T00:45:15;6.10;20.80
3684;DHT22;1858;48.716;9.648;2024-02-21T00:47:44;6.10;45.50
3684;DHT22;1858;48.716;9.648;2024-02-21T00:50:12;6.10;36.70
3684;DHT22;1858;48.716;9.648;2024-02-21T00:52:41;6.10;55.90
3684;DHT22;1858;48.716;9.648;2024-02-21T00:55:09;6.10;46.40
3684;DHT22;1858;48.716;9.648;2024-02-21T00:57:38;6.10;60.70
3684;DHT22;1858;48.716;9.648;2024-02-21T01:00:07;6.20;82.90
3684;DHT22;1858;48.716;9.648;2024-02-21T01:02:35;6.10;92.90
3684;DHT22;1858;48.716;9.648;2024-02-21T01:05:04;6.20;99.90
3684;DHT22;1858;48.716;9.648;2024-02-21T01:07:32;6.20;74.30
3684;DHT22;1858;48.716;9.648;2024-02-21T01:10:01;6.20;99.90
3684;DHT22;1858;48.716;9.648;2024-02-21T01:12:29;6.20;86.80
3684;DHT22;1858;48.716;9.648;2024-02-21T01:14:57;6.20;99.90
3684;DHT22;1858;48.716;9.648;2024-02-21T01:17:26;6.20;99.90
3684;DHT22;1858;48.716;9.648;2024-02-21T01:19:54;6.20;99.90
3684;DHT22;1858;48.716;9.648;2024-02-21T01:22:23;6.10;74.50
3684;DHT22;1858;48.716;9.648;2024-02-21T01:24:51;6.10;97.10
3684;DHT22;1858;48.716;9.648;2024-02-21T01:27:19;6.00;99.90
3684;DHT22;1858;48.716;9.648;2024-02-21T01:29:48;6.00;99.90
3684;DHT22;1858;48.716;9.648;2024-02-21T01:32:17;6.00;99.90
3684;DHT22;1858;48.716;9.648;2024-02-21T01:34:45;6.10;99.90
3684;DHT22;1858;48.716;9.648;2024-02-21T01:37:13;6.10;99.90
3684;DHT22;1858;48.716;9.648;2024-02-21T01:39:42;6.10;99.90
3684;DHT22;1858;48.716;9.648;2024-02-21T01:42:10;6.10;99.90
3684;DHT22;1858;48.716;9.648;2024-02-21T01:44:39;6.10;99.90
3684;DHT22;1858;48.716;9.648;2024-02-21T01:47:07;6.10;99.90
3684;DHT22;1858;48.716;9.648;2024-02-21T01:49:36;6.10;99.90
3684;DHT22;1858;48.716;9.648;2024-02-21T01:52:05;6.10;99.90
3684;DHT22;1858;48.716;9.648;2024-02-21T01:54:33;6.10;99.90
3684;DHT22;1858;48.716;9.648;2024-02-21T01:57:02;6.10;99.90
3684;DHT22;1858;48.716;9.648;2024-02-21T01:59:30;6.20;99.90
3684;DHT22;1858;48.716;9.648;2024-02-21T02:02:00;6.20;99.90
3684;DHT22;1858;48.716;9.648;2024-02-21T02:04:29;6.30;99.90
3684;DHT22;1858;48.716;9.648;2024-02-21T02:06:59;6.30;99.90
3684;DHT22;1858;48.716;9.648;2024-02-21T02:09:29;6.30;99.90
3684;DHT22;1858;48.716;9.648;2024-02-21T02:11:58;6.30;99.90
3684;DHT22;1858;48.716;9.648;2024-02-21T02:14:26;6.30;99.90
3684;DHT22;1858;48.716;9.648;2024-02-21T02:16:55;6.30;97.60
3684;DHT22;1858;48.716;9.648;2024-02-21T02:19:23;6.30;80.90
3684;DHT22;1858;48.716;9.648;2024-02-21T02:22:01;6.40;79.00
3684;DHT22;1858;48.716;9.648;2024-02-21T02:24:26;6.30;67.50
3684;DHT22;1858;48.716;9.648;2024-02-21T02:26:54;6.40;99.90
3684;DHT22;1858;48.716;9.648;2024-02-21T02:29:22;6.50;91.30
3684;DHT22;1858;48.716;9.648;2024-02-21T02:31:51;6.50;72.50
3684;DHT22;1858;48.716;9.648;2024-02-21T02:34:19;6.50;59.10
3684;DHT22;1858;48.716;9.648;2024-02-21T02:36:48;6.50;61.20
3684;DHT22;1858;48.716;9.648;2024-02-21T02:39:16;6.50;85.00
3684;DHT22;1858;48.716;9.648;2024-02-21T02:41:45;6.50;97.00
3684;DHT22;1858;48.716;9.648;2024-02-21T02:44:13;6.50;88.80
3684;DHT22;1858;48.716;9.648;2024-02-21T02:46:41;6.50;90.70
3684;DHT22;1858;48.716;9.648;2024-02-21T02:49:10;6.50;91.50
3684;DHT22;1858;48.716;9.648;2024-02-21T02:51:42;6.50;95.70
3684;DHT22;1858;48.716;9.648;2024-02-21T02:54:12;6.50;91.70
3684;DHT22;1858;48.716;9.648;2024-02-21T02:56:41;6.50;99.90
3684;DHT22;1858;48.716;9.648;2024-02-21T02:59:09;6.50;99.90
3684;DHT22;1858;48.716;9.648;2024-02-21T03:01:57;6.50;99.90
3684;DHT22;1858;48.716;9.648;2024-02-21T03:04:25;6.50;99.90
3684;DHT22;1858;48.716;9.648;2024-02-21T03:06:53;6.60;99.90
3684;DHT22;1858;48.716;9.648;2024-02-21T03:09:22;6.50;99.90
3684;DHT22;1858;48.716;9.648;2024-02-21T03:11:50;6.60;98.20
3684;DHT22;1858;48.716;9.648;2024-02-21T03:14:19;6.60;99.90
3684;DHT22;1858;48.716;9.648;2024-02-21T03:16:48;6.60;84.60
3684;DHT22;1858;48.716;9.648;2024-02-21T03:19:18;6.70;77.60
3684;DHT22;1858;48.716;9.648;2024-02-21T03:21:46;6.60;51.00
3684;DHT22;1858;48.716;9.648;2024-02-21T03:24:15;6.60;50.60
3684;DHT22;1858;48.716;9.648;2024-02-21T03:26:43;6.80;81.80
3684;DHT22;1858;48.716;9.648;2024-02-21T03:29:12;6.80;1.00
3684;DHT22;1858;48.716;9.648;2024-02-21T03:31:40;6.80;1.00
3684;DHT22;1858;48.716;9.648;2024-02-21T03:34:10;6.60;1.00
3684;DHT22;1858;48.716;9.648;2024-02-21T03:36:39;6.60;1.00
3684;DHT22;1858;48.716;9.648;2024-02-21T03:39:07;6.60;1.00
3684;DHT22;1858;48.716;9.648;2024-02-21T03:41:36;6.60;1.00
3684;DHT22;1858;48.716;9.648;2024-02-21T03:44:04;6.60;17.50
3684;DHT22;1858;48.716;9.648;2024-02-21T03:46:33;6.70;24.10
3684;DHT22;1858;48.716;9.648;2024-02-21T03:49:01;6.80;1.00
3684;DHT22;1858;48.716;9.648;2024-02-21T03:51:30;6.70;1.00
3684;DHT22;1858;48.716;9.648;2024-02-21T03:53:58;6.70;1.00
3684;DHT22;1858;48.716;9.648;2024-02-21T03:56:27;6.60;1.00
3684;DHT22;1858;48.716;9.648;2024-02-21T03:58:55;6.60;14.50
3684;DHT22;1858;48.716;9.648;2024-02-21T04:01:23;6.60;17.00
3684;DHT22;1858;48.716;9.648;2024-02-21T04:03:52;6.60;18.80
3684;DHT22;1858;48.716;9.648;2024-02-21T04:06:20;6.60;20.00
3684;DHT22;1858;48.716;9.648;2024-02-21T04:08:49;6.70;47.20
3684;DHT22;1858;48.716;9.648;2024-02-21T04:11:17;6.60;52.40
3684;DHT22;1858;48.716;9.648;2024-02-21T04:13:46;6.70;57.20
3684;DHT22;1858;48.716;9.648;2024-02-21T04:16:17;6.60;70.40
3684;DHT22;1858;48.716;9.648;2024-02-21T04:18:46;6.60;26.90
3684;DHT22;1858;48.716;9.648;2024-02-21T04:21:17;6.50;25.70
3684;DHT22;1858;48.716;9.648;2024-02-21T04:23:45;6.50;65.40
3684;DHT22;1858;48.716;9.648;2024-02-21T04:26:14;6.50;79.10
3684;DHT22;1858;48.716;9.648;2024-02-21T04:28:44;6.40;99.90
3684;DHT22;1858;48.716;9.648;2024-02-21T04:31:12;6.40;99.90
3684;DHT22;1858;48.716;9.648;2024-02-21T04:33:40;6.40;99.90
3684;DHT22;1858;48.716;9.648;2024-02-21T04:36:09;6.30;99.90
3684;DHT22;1858;48.716;9.648;2024-02-21T04:38:37;6.30;99.90
3684;DHT22;1858;48.716;9.648;2024-02-21T04:41:06;6.30;99.90
3684;DHT22;1858;48.716;9.648;2024-02-21T04:43:54;6.20;99.90
3684;DHT22;1858;48.716;9.648;2024-02-21T04:46:23;6.20;99.90
3684;DHT22;1858;48.716;9.648;2024-02-21T04:48:51;6.10;99.90
3684;DHT22;1858;48.716;9.648;2024-02-21T04:51:19;6.10;99.90
3684;DHT22;1858;48.716;9.648;2024-02-21T04:53:48;6.10;99.90
3684;DHT22;1858;48.716;9.648;2024-02-21T04:56:16;6.00;99.90
3684;DHT22;1858;48.716;9.648;2024-02-21T04:58:45;6.00;99.90
3684;DHT22;1858;48.716;9.648;2024-02-21T05:01:13;6.00;99.90
3684;DHT22;1858;48.716;9.648;2024-02-21T05:03:41;6.00;99.90
3684;DHT22;1858;48.716;9.648;2024-02-21T05:06:10;5.90;99.90
3684;DHT22;1858;48.716;9.648;2024-02-21T05:08:38;5.90;99.90
3684;DHT22;1858;48.716;9.648;2024-02-21T05:11:07;5.90;99.90
3684;DHT22;1858;48.716;9.648;2024-02-21T05:13:35;5.90;99.90
3684;DHT22;1858;48.716;9.648;2024-02-21T05:16:04;5.80;99.90
3684;DHT22;1858;48.716;9.648;2024-02-21T05:18:33;5.70;99.90
3684;DHT22;1858;48.716;9.648;2024-02-21T05:21:01;5.60;99.90
3684;DHT22;1858;48.716;9.648;2024-02-21T05:23:30;5.60;99.90
3684;DHT22;1858;48.716;9.648;2024-02-21T05:25:58;5.50;99.90
3684;DHT22;1858;48.716;9.648;2024-02-21T05:28:27;5.40;99.90
3684;DHT22;1858;48.716;9.648;2024-02-21T05:30:55;5.30;99.90
3684;DHT22;1858;48.716;9.648;2024-02-21T05:33:23;5.30;99.90
3684;DHT22;1858;48.716;9.648;2024-02-21T05:35:52;5.20;99.90
3684;DHT22;1858;48.716;9.648;2024-02-21T05:38:20;5.20;99.90
3684;DHT22;1858;48.716;9.648;2024-02-21T05:40:49;5.10;99.90
3684;DHT22;1858;48.716;9.648;2024-02-21T05:43:17;5.00;99.90
3684;DHT22;1858;48.716;9.648;2024-02-21T05:45:45;4.90;99.90
3684;DHT22;1858;48.716;9.648;2024-02-21T05:48:12;4.80;99.90
3684;DHT22;1858;48.716;9.648;2024-02-21T05:50:40;4.70;99.90
3684;DHT22;1858;48.716;9.648;2024-02-21T05:53:08;4.70;99.90
3684;DHT22;1858;48.716;9.648;2024-02-21T05:55:38;4.60;1.00
3684;DHT22;1858;48.716;9.648;2024-02-21T05:58:07;4.50;1.00
3684;DHT22;1858;48.716;9.648;2024-02-21T06:00:37;4.40;1.00
3684;DHT22;1858;48.716;9.648;2024-02-21T06:03:06;4.40;1.00
3684;DHT22;1858;48.716;9.648;2024-02-21T06:05:38;4.30;1.00
3684;DHT22;1858;48.716;9.648;2024-02-21T06:08:06;4.30;1.00
3684;DHT22;1858;48.716;9.648;2024-02-21T06:10:35;4.50;1.00
3684;DHT22;1858;48.716;9.648;2024-02-21T06:13:03;4.40;1.00
3684;DHT22;1858;48.716;9.648;2024-02-21T06:15:32;4.30;1.00
3684;DHT22;1858;48.716;9.648;2024-02-21T06:18:00;4.30;1.00
3684;DHT22;1858;48.716;9.648;2024-02-21T06:20:28;4.30;1.00
3684;DHT22;1858;48.716;9.648;2024-02-21T06:22:57;4.40;1.00
3684;DHT22;1858;48.716;9.648;2024-02-21T06:25:26;4.40;1.00
3684;DHT22;1858;48.716;9.648;2024-02-21T06:27:54;4.30;1.00
3684;DHT22;1858;48.716;9.648;2024-02-21T06:30:22;4.40;1.00
3684;DHT22;1858;48.716;9.648;2024-02-21T06:32:51;4.30;1.00
3684;DHT22;1858;48.716;9.648;2024-02-21T06:35:19;4.40;1.00
3684;DHT22;1858;48.716;9.648;2024-02-21T06:37:47;4.40;1.00
3684;DHT22;1858;48.716;9.648;2024-02-21T06:40:20;4.60;4.50
3684;DHT22;1858;48.716;9.648;2024-02-21T06:42:48;4.70;1.00
3684;DHT22;1858;48.716;9.648;2024-02-21T06:45:17;4.70;1.00
3684;DHT22;1858;48.716;9.648;2024-02-21T06:47:45;4.70;1.00
3684;DHT22;1858;48.716;9.648;2024-02-21T06:50:16;4.80;1.00
3684;DHT22;1858;48.716;9.648;2024-02-21T06:52:44;4.80;1.00
3684;DHT22;1858;48.716;9.648;2024-02-21T06:55:12;4.80;1.00
3684;DHT22;1858;48.716;9.648;2024-02-21T06:57:41;4.90;1.00
3684;DHT22;1858;48.716;9.648;2024-02-21T07:00:10;4.90;1.00
3684;DHT22;1858;48.716;9.648;2024-02-21T07:05:19;5.10;1.00
3684;DHT22;1858;48.716;9.648;2024-02-21T07:07:47;5.10;1.00
3684;DHT22;1858;48.716;9.648;2024-02-21T07:10:15;5.20;1.00
3684;DHT22;1858;48.716;9.648;2024-02-21T07:12:43;5.40;1.00
3684;DHT22;1858;48.716;9.648;2024-02-21T07:15:12;5.70;1.00
3684;DHT22;1858;48.716;9.648;2024-02-21T07:17:40;5.90;1.00
3684;DHT22;1858;48.716;9.648;2024-02-21T07:20:09;6.20;1.00
3684;DHT22;1858;48.716;9.648;2024-02-21T07:22:37;6.50;99.90
3684;DHT22;1858;48.716;9.648;2024-02-21T07:25:05;6.70;99.90
3684;DHT22;1858;48.716;9.648;2024-02-21T07:27:32;6.70;99.90
3684;DHT22;1858;48.716;9.648;2024-02-21T07:30:00;6.80;99.90
3684;DHT22;1858;48.716;9.648;2024-02-21T07:32:28;6.80;99.90
3684;DHT22;1858;48.716;9.648;2024-02-21T07:34:55;6.80;99.90
3684;DHT22;1858;48.716;9.648;2024-02-21T07:37:23;6.90;99.90
3684;DHT22;1858;48.716;9.648;2024-02-21T07:39:50;7.00;99.90
3684;DHT22;1858;48.716;9.648;2024-02-21T07:42:18;7.10;99.90
3684;DHT22;1858;48.716;9.648;2024-02-21T07:44:46;7.30;1.00
3684;DHT22;1858;48.716;9.648;2024-02-21T07:47:13;7.50;1.00
3684;DHT22;1858;48.716;9.648;2024-02-21T07:49:42;7.70;1.00
3684;DHT22;1858;48.716;9.648;2024-02-21T07:52:10;7.80;1.00
3684;DHT22;1858;48.716;9.648;2024-02-21T07:54:38;7.90;1.00
3684;DHT22;1858;48.716;9.648;2024-02-21T07:57:05;7.90;1.00
3684;DHT22;1858;48.716;9.648;2024-02-21T07:59:33;8.00;1.00
3684;DHT22;1858;48.716;9.648;2024-02-21T08:02:00;8.10;1.00
3684;DHT22;1858;48.716;9.648;2024-02-21T08:04:29;8.20;1.00
3684;DHT22;1858;48.716;9.648;2024-02-21T08:06:56;8.30;1.00
3684;DHT22;1858;48.716;9.648;2024-02-21T08:09:26;8.50;1.00
3684;DHT22;1858;48.716;9.648;2024-02-21T08:12:13;8.70;1.00
3684;DHT22;1858;48.716;9.648;2024-02-21T08:14:41;9.00;1.00
3684;DHT22;1858;48.716;9.648;2024-02-21T08:17:09;9.20;99.90
3684;DHT22;1858;48.716;9.648;2024-02-21T08:19:37;9.40;99.90
3684;DHT22;1858;48.716;9.648;2024-02-21T08:22:05;9.50;99.90
3684;DHT22;1858;48.716;9.648;2024-02-21T08:24:33;9.90;99.90
3684;DHT22;1858;48.716;9.648;2024-02-21T08:27:01;10.10;99.90
3684;DHT22;1858;48.716;9.648;2024-02-21T08:29:29;10.20;99.90
3684;DHT22;1858;48.716;9.648;2024-02-21T08:31:57;10.50;99.90
3684;DHT22;1858;48.716;9.648;2024-02-21T08:34:25;10.60;99.90
3684;DHT22;1858;48.716;9.648;2024-02-21T08:36:53;10.80;99.90
3684;DHT22;1858;48.716;9.648;2024-02-21T08:39:41;11.00;99.90
3684;DHT22;1858;48.716;9.648;2024-02-21T08:42:09;11.30;99.90
3684;DHT22;1858;48.716;9.648;2024-02-21T08:44:39;11.50;99.90
3684;DHT22;1858;48.716;9.648;2024-02-21T08:47:08;11.80;99.90
3684;DHT22;1858;48.716;9.648;2024-02-21T08:49:36;11.90;99.90
3684;DHT22;1858;48.716;9.648;2024-02-21T08:52:04;12.10;83.10
3684;DHT22;1858;48.716;9.648;2024-02-21T08:54:32;12.10;56.00
3684;DHT22;1858;48.716;9.648;2024-02-21T08:57:00;12.40;37.80
3684;DHT22;1858;48.716;9.648;2024-02-21T08:59:28;12.50;30.30
3684;DHT22;1858;48.716;9.648;2024-02-21T09:01:55;12.60;26.00
3684;DHT22;1858;48.716;9.648;2024-02-21T09:04:23;12.60;19.80
3684;DHT22;1858;48.716;9.648;2024-02-21T09:06:50;12.60;12.50
3684;DHT22;1858;48.716;9.648;2024-02-21T09:09:19;12.70;11.30
3684;DHT22;1858;48.716;9.648;2024-02-21T09:11:46;12.80;8.40
3684;DHT22;1858;48.716;9.648;2024-02-21T09:14:14;12.70;1.00
3684;DHT22;1858;48.716;9.648;2024-02-21T09:16:42;12.90;1.00
3684;DHT22;1858;48.716;9.648;2024-02-21T09:19:10;13.10;1.00
3684;DHT22;1858;48.716;9.648;2024-02-21T09:21:38;13.20;1.00
3684;DHT22;1858;48.716;9.648;2024-02-21T09:24:05;13.30;1.00
3684;DHT22;1858;48.716;9.648;2024-02-21T09:26:33;13.40;1.00
3684;DHT22;1858;48.716;9.648;2024-02-21T09:29:01;13.70;1.00
3684;DHT22;1858;48.716;9.648;2024-02-21T09:31:30;13.80;1.00
3684;DHT22;1858;48.716;9.648;2024-02-21T09:33:57;13.90;1.00
3684;DHT22;1858;48.716;9.648;2024-02-21T09:36:25;14.00;1.00
3684;DHT22;1858;48.716;9.648;2024-02-21T09:38:52;14.00;1.00
3684;DHT22;1858;48.716;9.648;2024-02-21T09:41:26;14.20;1.00
3684;DHT22;1858;48.716;9.648;2024-02-21T09:43:50;14.30;1.00
3684;DHT22;1858;48.716;9.648;2024-02-21T09:46:21;14.50;1.00
3684;DHT22;1858;48.716;9.648;2024-02-21T09:51:37;14.80;1.00
3684;DHT22;1858;48.716;9.648;2024-02-21T09:54:08;15.20;1.00
3684;DHT22;1858;48.716;9.648;2024-02-21T09:56:36;15.30;1.00
3684;DHT22;1858;48.716;9.648;2024-02-21T09:59:05;15.50;1.00
3684;DHT22;1858;48.716;9.648;2024-02-21T10:01:33;15.90;1.00
3684;DHT22;1858;48.716;9.648;2024-02-21T10:04:02;16.40;1.00
3684;DHT22;1858;48.716;9.648;2024-02-21T10:06:32;17.00;1.00
3684;DHT22;1858;48.716;9.648;2024-02-21T10:09:02;17.20;1.00
3684;DHT22;1858;48.716;9.648;2024-02-21T10:11:29;17.20;1.00
3684;DHT22;1858;48.716;9.648;2024-02-21T10:14:07;17.20;1.00
3684;DHT22;1858;48.716;9.648;2024-02-21T10:16:36;17.40;1.00
3684;DHT22;1858;48.716;9.648;2024-02-21T10:19:04;17.20;1.00
3684;DHT22;1858;48.716;9.648;2024-02-21T10:21:31;17.10;1.00
3684;DHT22;1858;48.716;9.648;2024-02-21T10:24:00;16.90;1.00
3684;DHT22;1858;48.716;9.648;2024-02-21T10:26:28;17.00;1.00
3684;DHT22;1858;48.716;9.648;2024-02-21T10:28:57;17.00;1.00
3684;DHT22;1858;48.716;9.648;2024-02-21T10:31:26;17.20;1.00
3684;DHT22;1858;48.716;9.648;2024-02-21T10:36:45;17.30;1.00
3684;DHT22;1858;48.716;9.648;2024-02-21T10:39:14;17.50;1.00
3684;DHT22;1858;48.716;9.648;2024-02-21T10:41:42;17.60;1.00
3684;DHT22;1858;48.716;9.648;2024-02-21T10:44:12;17.60;1.00
3684;DHT22;1858;48.716;9.648;2024-02-21T10:46:42;17.50;1.00
3684;DHT22;1858;48.716;9.648;2024-02-21T10:49:22;17.50;1.00
3684;DHT22;1858;48.716;9.648;2024-02-21T10:51:46;17.60;1.00
3684;DHT22;1858;48.716;9.648;2024-02-21T10:57:05;17.30;1.00
3684;DHT22;1858;48.716;9.648;2024-02-21T10:59:36;17.00;1.00
3684;DHT22;1858;48.716;9.648;2024-02-21T11:02:05;17.10;1.00
3684;DHT22;1858;48.716;9.648;2024-02-21T11:04:35;17.20;1.00
3684;DHT22;1858;48.716;9.648;2024-02-21T11:07:05;17.10;1.00
3684;DHT22;1858;48.716;9.648;2024-02-21T11:09:34;17.00;1.00
3684;DHT22;1858;48.716;9.648;2024-02-21T11:12:06;17.00;1.00
3684;DHT22;1858;48.716;9.648;2024-02-21T11:14:37;17.10;1.00
3684;DHT22;1858;48.716;9.648;2024-02-21T11:17:17;17.10;1.00
3684;DHT22;1858;48.716;9.648;2024-02-21T11:19:45;17.10;1.00
3684;DHT22;1858;48.716;9.648;2024-02-21T11:22:19;17.20;1.00
3684;DHT22;1858;48.716;9.648;2024-02-21T11:24:49;17.10;1.00
3684;DHT22;1858;48.716;9.648;2024-02-21T11:27:22;17.20;1.00
3684;DHT22;1858;48.716;9.648;2024-02-21T11:29:57;17.10;1.00
3684;DHT22;1858;48.716;9.648;2024-02-21T11:32:31;17.20;1.00
3684;DHT22;1858;48.716;9.648;2024-02-21T11:35:01;17.20;1.00
3684;DHT22;1858;48.716;9.648;2024-02-21T11:37:33;17.20;1.00
3684;DHT22;1858;48.716;9.648;2024-02-21T11:40:01;17.20;1.00
3684;DHT22;1858;48.716;9.648;2024-02-21T11:42:30;17.20;1.00
3684;DHT22;1858;48.716;9.648;2024-02-21T11:45:00;17.20;1.00
3684;DHT22;1858;48.716;9.648;2024-02-21T11:47:29;17.10;1.00
3684;DHT22;1858;48.716;9.648;2024-02-21T11:49:57;17.10;1.00
3684;DHT22;1858;48.716;9.648;2024-02-21T11:52:26;17.10;1.00
3684;DHT22;1858;48.716;9.648;2024-02-21T11:54:55;17.00;1.00
3684;DHT22;1858;48.716;9.648;2024-02-21T11:57:25;17.00;1.00
3684;DHT22;1858;48.716;9.648;2024-02-21T11:59:53;17.00;1.00
3684;DHT22;1858;48.716;9.648;2024-02-21T12:02:22;17.00;1.00
3684;DHT22;1858;48.716;9.648;2024-02-21T12:04:51;16.90;1.00
3684;DHT22;1858;48.716;9.648;2024-02-21T12:07:19;17.00;1.00
3684;DHT22;1858;48.716;9.648;2024-02-21T12:10:10;17.00;1.00
3684;DHT22;1858;48.716;9.648;2024-02-21T12:12:39;17.10;1.00
3684;DHT22;1858;48.716;9.648;2024-02-21T12:15:08;17.00;1.00
3684;DHT22;1858;48.716;9.648;2024-02-21T12:17:37;17.30;1.00
3684;DHT22;1858;48.716;9.648;2024-02-21T12:20:07;17.10;1.00
3684;DHT22;1858;48.716;9.648;2024-02-21T12:22:39;17.10;1.00
3684;DHT22;1858;48.716;9.648;2024-02-21T12:25:17;17.00;1.00
3684;DHT22;1858;48.716;9.648;2024-02-21T12:27:46;17.00;1.00
3684;DHT22;1858;48.716;9.648;2024-02-21T12:30:16;17.10;1.00
3684;DHT22;1858;48.716;9.648;2024-02-21T12:32:50;17.00;1.00
3684;DHT22;1858;48.716;9.648;2024-02-21T12:35:16;16.90;1.00
3684;DHT22;1858;48.716;9.648;2024-02-21T12:37:45;16.90;1.00
3684;DHT22;1858;48.716;9.648;2024-02-21T12:40:13;16.90;1.00
3684;DHT22;1858;48.716;9.648;2024-02-21T12:42:41;16.90;1.00
3684;DHT22;1858;48.716;9.648;2024-02-21T12:45:10;16.90;1.00
3684;DHT22;1858;48.716;9.648;2024-02-21T12:47:39;16.90;1.00
3684;DHT22;1858;48.716;9.648;2024-02-21T12:50:08;16.80;1.00
3684;DHT22;1858;48.716;9.648;2024-02-21T12:52:36;16.80;1.00
3684;DHT22;1858;48.716;9.648;2024-02-21T12:55:05;16.80;1.00
3684;DHT22;1858;48.716;9.648;2024-02-21T12:57:33;16.60;1.00
3684;DHT22;1858;48.716;9.648;2024-02-21T13:00:02;16.50;1.00
3684;DHT22;1858;48.716;9.648;2024-02-21T13:02:31;16.60;1.00
3684;DHT22;1858;48.716;9.648;2024-02-21T13:04:59;16.60;1.00
3684;DHT22;1858;48.716;9.648;2024-02-21T13:07:29;16.50;1.00
3684;DHT22;1858;48.716;9.648;2024-02-21T13:09:59;16.50;1.00
3684;DHT22;1858;48.716;9.648;2024-02-21T13:12:28;16.50;1.00
3684;DHT22;1858;48.716;9.648;2024-02-21T13:14:57;16.50;1.00
3684;DHT22;1858;48.716;9.648;2024-02-21T13:17:25;16.50;1.00
3684;DHT22;1858;48.716;9.648;2024-02-21T13:19:55;16.40;1.00
3684;DHT22;1858;48.716;9.648;2024-02-21T13:22:24;16.40;1.00
3684;DHT22;1858;48.716;9.648;2024-02-21T13:24:54;16.30;1.00
3684;DHT22;1858;48.716;9.648;2024-02-21T13:27:22;16.30;1.00
3684;DHT22;1858;48.716;9.648;2024-02-21T13:29:51;16.20;1.00
3684;DHT22;1858;48.716;9.648;2024-02-21T13:32:20;16.20;1.00
3684;DHT22;1858;48.716;9.648;2024-02-21T13:34:48;16.20;1.00
3684;DHT22;1858;48.716;9.648;2024-02-21T13:37:18;16.10;1.00
3684;DHT22;1858;48.716;9.648;2024-02-21T13:39:47;16.00;1.00
3684;DHT22;1858;48.716;9.648;2024-02-21T13:42:15;16.00;1.00
3684;DHT22;1858;48.716;9.648;2024-02-21T13:44:44;15.80;1.00
3684;DHT22;1858;48.716;9.648;2024-02-21T13:47:16;15.80;1.00
3684;DHT22;1858;48.716;9.648;2024-02-21T13:49:44;15.90;1.00
3684;DHT22;1858;48.716;9.648;2024-02-21T13:52:13;15.80;1.00
3684;DHT22;1858;48.716;9.648;2024-02-21T13:54:41;15.80;1.00
3684;DHT22;1858;48.716;9.648;2024-02-21T13:57:10;15.70;1.00
3684;DHT22;1858;48.716;9.648;2024-02-21T13:59:38;15.80;1.00
3684;DHT22;1858;48.716;9.648;2024-02-21T14:02:07;15.90;1.00
3684;DHT22;1858;48.716;9.648;2024-02-21T14:04:35;15.90;1.00
3684;DHT22;1858;48.716;9.648;2024-02-21T14:07:04;15.90;1.00
3684;DHT22;1858;48.716;9.648;2024-02-21T14:09:32;16.00;1.00
3684;DHT22;1858;48.716;9.648;2024-02-21T14:12:01;15.90;1.00
3684;DHT22;1858;48.716;9.648;2024-02-21T14:14:30;15.90;1.00
3684;DHT22;1858;48.716;9.648;2024-02-21T14:17:19;15.90;1.00
3684;DHT22;1858;48.716;9.648;2024-02-21T14:19:48;15.70;1.00
3684;DHT22;1858;48.716;9.648;2024-02-21T14:22:16;15.60;1.00
3684;DHT22;1858;48.716;9.648;2024-02-21T14:24:45;15.60;1.00
3684;DHT22;1858;48.716;9.648;2024-02-21T14:27:13;15.60;1.00
3684;DHT22;1858;48.716;9.648;2024-02-21T14:29:42;15.40;1.00
3684;DHT22;1858;48.716;9.648;2024-02-21T14:32:12;15.30;1.00
3684;DHT22;1858;48.716;9.648;2024-02-21T14:34:41;15.30;1.00
3684;DHT22;1858;48.716;9.648;2024-02-21T14:37:09;15.20;1.00
3684;DHT22;1858;48.716;9.648;2024-02-21T14:39:38;15.20;1.00
3684;DHT22;1858;48.716;9.648;2024-02-21T14:42:08;15.20;1.00
3684;DHT22;1858;48.716;9.648;2024-02-21T14:44:39;15.30;1.00
3684;DHT22;1858;48.716;9.648;2024-02-21T14:47:08;15.20;1.00
3684;DHT22;1858;48.716;9.648;2024-02-21T14:49:37;15.20;1.00
3684;DHT22;1858;48.716;9.648;2024-02-21T14:52:05;15.00;1.00
3684;DHT22;1858;48.716;9.648;2024-02-21T14:54:33;15.00;1.00
3684;DHT22;1858;48.716;9.648;2024-02-21T14:57:02;14.90;1.00
3684;DHT22;1858;48.716;9.648;2024-02-21T14:59:50;14.90;1.00
3684;DHT22;1858;48.716;9.648;2024-02-21T15:02:20;14.90;1.00
3684;DHT22;1858;48.716;9.648;2024-02-21T15:04:48;14.80;1.00
3684;DHT22;1858;48.716;9.648;2024-02-21T15:07:19;14.80;1.00
3684;DHT22;1858;48.716;9.648;2024-02-21T15:09:50;14.80;1.00
3684;DHT22;1858;48.716;9.648;2024-02-21T15:12:18;14.70;1.00
3684;DHT22;1858;48.716;9.648;2024-02-21T15:14:47;14.80;1.00
3684;DHT22;1858;48.716;9.648;2024-02-21T15:17:15;14.70;1.00
3684;DHT22;1858;48.716;9.648;2024-02-21T15:20:03;14.70;1.00
3684;DHT22;1858;48.716;9.648;2024-02-21T15:22:35;14.60;1.00
3684;DHT22;1858;48.716;9.648;2024-02-21T15:25:03;14.70;1.00
3684;DHT22;1858;48.716;9.648;2024-02-21T15:27:32;14.60;1.00
3684;DHT22;1858;48.716;9.648;2024-02-21T15:30:03;14.60;1.00
3684;DHT22;1858;48.716;9.648;2024-02-21T15:32:31;14.50;1.00
3684;DHT22;1858;48.716;9.648;2024-02-21T15:34:59;14.50;1.00
3684;DHT22;1858;48.716;9.648;2024-02-21T15:37:28;14.40;1.00
3684;DHT22;1858;48.716;9.648;2024-02-21T15:39:56;14.30;1.00
3684;DHT22;1858;48.716;9.648;2024-02-21T15:42:25;14.20;1.00
3684;DHT22;1858;48.716;9.648;2024-02-21T15:44:53;14.10;1.00
3684;DHT22;1858;48.716;9.648;2024-02-21T15:47:22;14.00;1.00
3684;DHT22;1858;48.716;9.648;2024-02-21T15:49:51;13.90;1.00
3684;DHT22;1858;48.716;9.648;2024-02-21T15:52:19;13.70;1.00
3684;DHT22;1858;48.716;9.648;2024-02-21T15:54:48;13.60;1.00
3684;DHT22;1858;48.716;9.648;2024-02-21T15:57:17;13.40;1.00
3684;DHT22;1858;48.716;9.648;2024-02-21T15:59:45;13.30;1.00
3684;DHT22;1858;48.716;9.648;2024-02-21T16:02:15;13.30;1.00
3684;DHT22;1858;48.716;9.648;2024-02-21T16:04:43;13.20;1.00
3684;DHT22;1858;48.716;9.648;2024-02-21T16:07:11;13.10;1.00
3684;DHT22;1858;48.716;9.648;2024-02-21T16:09:39;13.10;1.00
3684;DHT22;1858;48.716;9.648;2024-02-21T16:12:09;13.00;1.00
3684;DHT22;1858;48.716;9.648;2024-02-21T16:14:38;13.00;1.00
3684;DHT22;1858;48.716;9.648;2024-02-21T16:17:07;12.90;1.00
3684;DHT22;1858;48.716;9.648;2024-02-21T16:19:35;12.70;1.00
3684;DHT22;1858;48.716;9.648;2024-02-21T16:22:04;12.70;1.00
3684;DHT22;1858;48.716;9.648;2024-02-21T16:24:32;12.60;1.00
3684;DHT22;1858;48.716;9.648;2024-02-21T16:27:00;12.50;1.00
3684;DHT22;1858;48.716;9.648;2024-02-21T16:29:30;12.40;1.00
3684;DHT22;1858;48.716;9.648;2024-02-21T16:31:59;12.40;1.00
3684;DHT22;1858;48.716;9.648;2024-02-21T16:34:28;12.40;1.00
3684;DHT22;1858;48.716;9.648;2024-02-21T16:36:56;12.40;1.00
3684;DHT22;1858;48.716;9.648;2024-02-21T16:39:25;12.40;1.00
3684;DHT22;1858;48.716;9.648;2024-02-21T16:41:54;12.30;1.00